Time;durP1;ratioP1;P1;durP2;ratioP2;P2;SDS_P1;SDS_P2;PMS_P1;PMS_P2;Temp;Humidity;BMP_temperature;BMP_pressure;BME280_temperature;BME280_humidity;BME280_pressure;Samples;Min_cycle;Max_cycle;Signal;HPM_P1;HPM_P2
2023/06/08 00:01:37;;;;;;;8.10;5.67;;;;;;;17.87;100.00;96054.69;6159339;23;20345;-86
2023/06/08 00:04:05;;;;;;;9.50;5.40;;;;;;;17.77;100.00;96046.34;6160161;23;20013;-87
2023/06/08 00:06:33;;;;;;;8.00;5.03;;;;;;;17.82;100.00;96049.19;6183836;23;20040;-87
2023/06/08 00:09:01;;;;;;;6.50;4.60;;;;;;;17.66;100.00;96045.09;6210282;23;20013;-87
2023/06/08 00:11:27;;;;;;;7.63;4.63;;;;;;;17.78;100.00;96043.47;6159882;23;20000;-86
2023/06/08 00:13:53;;;;;;;11.57;4.93;;;;;;;17.65;100.00;96046.13;6181940;23;20729;-87
2023/06/08 00:16:20;;;;;;;7.87;4.67;;;;;;;17.73;100.00;96050.41;6155519;23;20016;-87
2023/06/08 00:18:49;;;;;;;10.47;5.23;;;;;;;17.63;100.00;96042.84;6179720;23;20000;-87
2023/06/08 00:21:15;;;;;;;6.37;4.73;;;;;;;17.47;100.00;96052.13;6178384;23;19993;-87
2023/06/08 00:23:41;;;;;;;8.63;5.10;;;;;;;17.75;100.00;96043.06;6164743;23;20011;-87
2023/06/08 00:26:07;;;;;;;8.80;5.73;;;;;;;17.65;100.00;96048.81;6185188;23;20024;-87
2023/06/08 00:28:32;;;;;;;8.43;5.13;;;;;;;17.52;100.00;96049.63;6183470;23;20283;-87
2023/06/08 00:30:58;;;;;;;9.90;5.27;;;;;;;17.83;100.00;96048.16;6181710;23;20051;-87
2023/06/08 00:33:23;;;;;;;7.23;4.53;;;;;;;17.90;100.00;96043.63;6155349;23;20020;-87
2023/06/08 00:35:49;;;;;;;6.90;4.83;;;;;;;17.68;100.00;96048.38;6207461;23;20416;-87
2023/06/08 00:38:15;;;;;;;8.40;5.50;;;;;;;17.50;100.00;96043.69;6159346;23;20106;-87
2023/06/08 00:40:42;;;;;;;6.60;4.70;;;;;;;17.30;100.00;96043.72;6183135;23;20001;-87
2023/06/08 00:43:08;;;;;;;8.17;5.10;;;;;;;17.49;100.00;96046.56;6161182;23;20059;-86
2023/06/08 00:45:34;;;;;;;10.00;5.00;;;;;;;17.39;100.00;96047.00;6187529;23;20005;-87
2023/06/08 00:48:02;;;;;;;6.90;4.60;;;;;;;17.60;100.00;96044.09;6159267;23;20039;-87
2023/06/08 00:50:31;;;;;;;7.90;5.10;;;;;;;17.37;100.00;96047.22;6156996;23;20025;-87
2023/06/08 00:52:57;;;;;;;7.53;5.23;;;;;;;17.30;100.00;96053.53;6181408;23;20018;-87
2023/06/08 00:55:24;;;;;;;9.70;4.73;;;;;;;17.11;100.00;96050.69;6156436;23;20400;-87
2023/06/08 00:57:51;;;;;;;13.03;5.53;;;;;;;17.29;100.00;96046.59;6180927;23;20092;-87
2023/06/08 01:00:17;;;;;;;9.80;5.63;;;;;;;16.97;100.00;96059.69;6155625;23;20012;-87
2023/06/08 01:02:43;;;;;;;10.07;6.70;;;;;;;16.91;100.00;96052.53;6158015;23;20005;-87
2023/06/08 01:05:09;;;;;;;9.60;6.43;;;;;;;16.80;100.00;96047.81;6182474;23;20016;-87
2023/06/08 01:07:34;;;;;;;7.90;5.80;;;;;;;16.56;100.00;96042.00;6157251;23;20000;-86
2023/06/08 01:10:18;;;;;;;9.63;5.73;;;;;;;17.12;100.00;96033.72;6157640;23;20008;-87
2023/06/08 01:13:02;;;;;;;10.07;5.60;;;;;;;17.18;100.00;96030.25;6157954;23;20004;-86
2023/06/08 01:15:35;;;;;;;11.20;6.20;;;;;;;17.01;100.00;96031.69;6182720;23;20008;-87
2023/06/08 01:18:07;;;;;;;9.50;5.97;;;;;;;17.15;100.00;96029.84;6156252;23;20040;-86
2023/06/08 01:21:07;;;;;;;19.73;6.03;;;;;;;17.00;100.00;96031.88;6158301;23;20028;-87
2023/06/08 01:23:52;;;;;;;8.03;5.80;;;;;;;17.14;100.00;96028.22;6160247;23;20004;-87
2023/06/08 01:26:20;;;;;;;8.77;5.50;;;;;;;17.02;100.00;96027.19;6163470;23;20004;-87
2023/06/08 01:28:49;;;;;;;8.70;6.40;;;;;;;16.75;100.00;96029.03;6164189;23;20019;-87
2023/06/08 01:31:15;;;;;;;9.10;6.20;;;;;;;17.00;100.00;96021.25;6188520;23;20418;-87
2023/06/08 01:33:41;;;;;;;8.27;5.70;;;;;;;17.17;100.00;96014.53;6188490;23;20008;-87
2023/06/08 01:36:36;;;;;;;8.73;6.13;;;;;;;17.14;100.00;96020.25;6163745;23;20421;-87
2023/06/08 01:39:11;;;;;;;10.00;5.63;;;;;;;17.13;100.00;96031.88;6163593;23;20027;-87
2023/06/08 01:41:42;;;;;;;9.90;6.47;;;;;;;16.62;100.00;96030.59;6162897;23;20035;-87
2023/06/08 01:44:12;;;;;;;8.70;6.30;;;;;;;17.03;100.00;96026.16;6209640;23;20001;-87
2023/06/08 01:46:37;;;;;;;11.87;6.53;;;;;;;17.10;100.00;96032.28;6158866;23;20011;-87
2023/06/08 01:49:05;;;;;;;10.67;6.37;;;;;;;17.08;100.00;96029.84;6160036;23;20661;-87
2023/06/08 01:51:32;;;;;;;7.87;6.03;;;;;;;17.23;100.00;96031.47;6182542;23;20312;-87
2023/06/08 01:54:03;;;;;;;8.00;6.33;;;;;;;17.07;100.00;96020.25;6157774;23;20012;-87
2023/06/08 01:56:31;;;;;;;10.07;7.53;;;;;;;16.80;100.00;96018.59;6183092;23;20032;-86
2023/06/08 01:58:56;;;;;;;8.97;7.00;;;;;;;16.77;100.00;96021.66;6182607;23;20019;-86
2023/06/08 02:01:22;;;;;;;9.77;7.50;;;;;;;16.85;100.00;96014.31;6182010;23;19996;-86
2023/06/08 02:03:47;;;;;;;8.87;6.80;;;;;;;16.91;100.00;96018.81;6158611;23;20011;-87
2023/06/08 02:06:13;;;;;;;10.63;7.13;;;;;;;16.80;100.00;96015.94;6182836;23;20629;-87
2023/06/08 02:08:39;;;;;;;9.67;6.83;;;;;;;16.96;100.00;96012.88;6181732;23;20005;-87
2023/06/08 02:11:05;;;;;;;11.73;8.43;;;;;;;16.82;100.00;96008.59;6156440;23;20469;-87
2023/06/08 02:13:34;;;;;;;9.30;7.33;;;;;;;16.70;100.00;96008.38;6162268;23;20008;-87
2023/06/08 02:16:00;;;;;;;9.77;7.60;;;;;;;16.78;100.00;96010.03;6188162;23;20384;-87
2023/06/08 02:18:26;;;;;;;14.00;8.17;;;;;;;16.52;100.00;96003.63;6163212;23;20008;-87
2023/06/08 02:20:55;;;;;;;12.37;8.23;;;;;;;16.71;100.00;96015.31;6187880;23;20012;-87
2023/06/08 02:23:20;;;;;;;11.43;8.20;;;;;;;16.81;100.00;96006.97;6163462;23;19996;-86
2023/06/08 02:25:49;;;;;;;10.17;8.47;;;;;;;17.08;100.00;96000.63;6188124;23;20000;-87
2023/06/08 02:28:15;;;;;;;12.23;8.87;;;;;;;17.01;100.00;96004.31;6162774;23;20618;-86
2023/06/08 02:30:41;;;;;;;10.50;8.77;;;;;;;16.67;100.00;96006.09;6163106;23;20001;-87
2023/06/08 02:33:07;;;;;;;11.53;9.23;;;;;;;16.71;100.00;96008.16;6163395;23;20009;-86
2023/06/08 02:35:34;;;;;;;10.87;8.37;;;;;;;16.73;100.00;96005.28;6187739;23;20321;-87
2023/06/08 02:38:00;;;;;;;10.43;8.97;;;;;;;16.82;100.00;96006.75;6188477;23;20005;-87
2023/06/08 02:40:26;;;;;;;14.50;8.97;;;;;;;16.82;100.00;96004.09;6188574;23;20004;-87
2023/06/08 02:42:51;;;;;;;10.13;8.53;;;;;;;17.00;100.00;96006.16;6188279;23;20001;-87
2023/06/08 02:45:20;;;;;;;8.80;7.43;;;;;;;17.13;100.00;96003.47;6163258;23;20015;-87
2023/06/08 02:47:46;;;;;;;11.20;8.57;;;;;;;17.15;100.00;96006.75;6186303;23;20004;-85
2023/06/08 02:50:11;;;;;;;10.40;8.13;;;;;;;17.15;100.00;96006.75;6163386;23;20004;-87
2023/06/08 02:52:37;;;;;;;11.17;8.23;;;;;;;17.00;100.00;96008.81;6158956;23;20004;-86
2023/06/08 02:55:05;;;;;;;13.00;9.50;;;;;;;16.76;100.00;96017.38;6182737;23;20016;-87
2023/06/08 02:57:32;;;;;;;10.63;8.17;;;;;;;16.56;100.00;96014.66;6183337;23;20008;-87
2023/06/08 03:00:07;;;;;;;11.67;8.13;;;;;;;16.54;100.00;96014.88;6180606;23;20028;-85
2023/06/08 03:02:45;;;;;;;10.73;8.25;;;;;;;16.55;100.00;96008.53;6158237;23;20109;-86
2023/06/08 03:05:11;;;;;;;12.97;9.00;;;;;;;16.54;100.00;96014.06;6180848;23;20000;-86
2023/06/08 03:07:40;;;;;;;11.97;9.63;;;;;;;16.57;100.00;96011.81;6179771;23;20020;-86
2023/06/08 03:10:08;;;;;;;10.10;8.97;;;;;;;16.75;100.00;96013.09;6206871;23;20100;-86
2023/06/08 03:12:34;;;;;;;13.63;10.20;;;;;;;16.76;100.00;96015.53;6156107;23;20000;-85
2023/06/08 03:15:02;;;;;;;11.43;9.73;;;;;;;16.92;100.00;96022.28;6180951;23;20067;-87
2023/06/08 03:17:28;;;;;;;10.73;9.50;;;;;;;16.94;100.00;96014.94;6155776;23;20194;-87
2023/06/08 03:19:55;;;;;;;12.47;10.07;;;;;;;17.18;100.00;96016.16;6156465;23;20004;-86
2023/06/08 03:22:24;;;;;;;10.97;9.43;;;;;;;17.09;100.00;96026.16;6155883;23;20050;-87
2023/06/08 03:25:03;;;;;;;13.27;10.13;;;;;;;16.69;100.00;96023.44;6180140;23;20004;-85
2023/06/08 03:27:29;;;;;;;13.43;10.30;;;;;;;16.59;100.00;96023.03;6177035;23;20027;-87
2023/06/08 03:29:57;;;;;;;15.83;10.50;;;;;;;16.73;100.00;96029.16;6155186;23;20027;-85
2023/06/08 03:32:29;;;;;;;11.80;9.90;;;;;;;16.82;100.00;96024.53;6178520;23;20001;-87
2023/06/08 03:34:56;;;;;;;13.33;9.37;;;;;;;16.62;100.00;96017.31;6179542;23;20027;-87
2023/06/08 03:37:22;;;;;;;12.97;9.97;;;;;;;16.82;100.00;96016.56;6155473;23;20008;-87
2023/06/08 03:39:48;;;;;;;12.00;10.00;;;;;;;16.76;100.00;96014.72;6155847;23;20011;-87
2023/06/08 03:42:13;;;;;;;12.17;9.97;;;;;;;16.79;100.00;96017.78;6155018;23;20496;-87
2023/06/08 03:44:41;;;;;;;12.20;9.77;;;;;;;16.73;100.00;96019.41;6159255;23;20438;-86
2023/06/08 03:47:09;;;;;;;12.30;10.27;;;;;;;16.49;100.00;96014.63;6155364;23;20008;-87
2023/06/08 03:49:36;;;;;;;13.23;10.13;;;;;;;16.65;100.00;96021.41;6154957;23;20070;-87
2023/06/08 03:52:04;;;;;;;11.27;9.70;;;;;;;16.56;100.00;96026.09;6204464;23;20023;-87
2023/06/08 03:54:30;;;;;;;11.23;10.03;;;;;;;16.55;100.00;96026.31;6155950;23;20270;-87
2023/06/08 03:56:56;;;;;;;12.13;9.40;;;;;;;16.62;100.00;96025.28;6157752;23;20088;-87
2023/06/08 03:59:22;;;;;;;12.83;10.67;;;;;;;16.99;100.00;96027.59;6159501;23;20263;-87
2023/06/08 04:01:48;;;;;;;11.93;10.73;;;;;;;17.08;100.00;96019.22;6185654;23;20425;-87
2023/06/08 04:04:14;;;;;;;14.53;9.73;;;;;;;17.13;100.00;96027.38;6160082;23;20012;-86
2023/06/08 04:06:40;;;;;;;11.70;9.97;;;;;;;17.02;100.00;96025.34;6159013;23;20012;-87
2023/06/08 04:09:08;;;;;;;12.40;10.10;;;;;;;17.22;100.00;96020.03;6159277;23;20019;-87
2023/06/08 04:11:33;;;;;;;12.13;9.70;;;;;;;17.55;100.00;96025.28;6158046;23;20008;-87
2023/06/08 04:14:00;;;;;;;14.03;10.20;;;;;;;17.24;100.00;96025.97;6158440;23;20011;-86
2023/06/08 04:16:26;;;;;;;12.03;10.70;;;;;;;17.15;100.00;96025.34;6162265;23;20005;-87
2023/06/08 04:18:57;;;;;;;11.77;9.57;;;;;;;16.93;100.00;96026.56;6189269;23;20015;-87
2023/06/08 04:21:26;;;;;;;12.80;10.65;;;;;;;16.99;100.00;96030.25;6189712;23;20008;-87
2023/06/08 04:23:55;;;;;;;12.07;9.30;;;;;;;17.00;100.00;96027.41;6189940;23;20012;-87
2023/06/08 04:26:26;;;;;;;11.70;9.93;;;;;;;16.81;100.00;96028.22;6165646;23;20026;-87
2023/06/08 04:28:52;;;;;;;14.40;9.80;;;;;;;16.86;100.00;96026.56;6164706;23;20011;-87
2023/06/08 04:31:21;;;;;;;11.33;9.20;;;;;;;16.45;100.00;96032.00;6189624;23;20372;-86
2023/06/08 04:33:50;;;;;;;12.83;9.47;;;;;;;16.49;100.00;96025.25;6189761;23;20011;-87
2023/06/08 04:36:16;;;;;;;12.33;9.87;;;;;;;16.68;100.00;96021.81;6215131;23;20005;-87
2023/06/08 04:38:42;;;;;;;12.80;9.40;;;;;;;16.61;100.00;96030.81;6190024;23;20011;-87
2023/06/08 04:41:11;;;;;;;12.30;9.90;;;;;;;16.53;100.00;96029.13;6189030;23;20080;-87
2023/06/08 04:43:37;;;;;;;13.13;9.80;;;;;;;16.76;100.00;96023.50;6164401;23;20008;-87
2023/06/08 04:46:08;;;;;;;15.50;10.67;;;;;;;16.79;100.00;96031.06;6189799;23;20534;-87
2023/06/08 04:48:37;;;;;;;12.70;9.43;;;;;;;16.55;100.00;96032.44;6190106;23;20028;-87
2023/06/08 04:51:09;;;;;;;10.13;9.03;;;;;;;16.80;100.00;96039.84;6168784;23;20060;-87
2023/06/08 04:53:35;;;;;;;14.43;10.70;;;;;;;17.01;100.00;96034.34;6193635;23;20095;-86
2023/06/08 04:56:02;;;;;;;12.40;9.43;;;;;;;17.03;100.00;96034.94;6165145;23;20360;-86
2023/06/08 04:58:32;;;;;;;10.97;9.83;;;;;;;16.75;100.00;96029.03;6189347;23;20004;-87
2023/06/08 05:00:58;;;;;;;12.13;9.87;;;;;;;16.88;100.00;96037.00;6189483;23;20004;-87
2023/06/08 05:03:25;;;;;;;11.40;9.70;;;;;;;17.17;100.00;96033.94;6165139;23;20020;-87
2023/06/08 05:05:51;;;;;;;12.90;9.43;;;;;;;17.67;100.00;96031.63;6164437;23;20001;-87
2023/06/08 05:08:17;;;;;;;13.90;9.50;;;;;;;17.43;100.00;96030.41;6164410;23;20035;-86
2023/06/08 05:10:56;;;;;;;15.43;9.70;;;;;;;17.68;100.00;96030.59;6189216;23;20441;-87
2023/06/08 05:13:22;;;;;;;9.90;8.90;;;;;;;17.99;100.00;96026.41;6186992;23;20008;-87
2023/06/08 05:15:47;;;;;;;11.40;10.20;;;;;;;18.04;100.00;96036.41;6186629;23;20698;-87
2023/06/08 05:18:13;;;;;;;11.53;9.73;;;;;;;18.25;100.00;96027.34;6161636;23;20433;-87
2023/06/08 05:20:38;;;;;;;13.03;10.50;;;;;;;18.43;100.00;96027.44;6186351;23;20011;-86
2023/06/08 05:23:04;;;;;;;11.10;9.50;;;;;;;18.49;100.00;96031.91;6161595;23;20011;-87
2023/06/08 05:25:30;;;;;;;11.20;9.93;;;;;;;18.81;100.00;96023.94;6160908;23;20690;-86
2023/06/08 05:27:55;;;;;;;13.07;9.90;;;;;;;18.95;100.00;96025.50;6160145;23;20039;-86
2023/06/08 05:30:26;;;;;;;13.27;10.63;;;;;;;18.67;100.00;96025.03;6183530;23;20032;-86
2023/06/08 05:32:52;;;;;;;10.83;9.63;;;;;;;19.01;100.00;96029.13;6210731;23;20071;-87
2023/06/08 05:35:17;;;;;;;12.43;9.93;;;;;;;18.98;100.00;96025.06;6184860;23;20007;-86
2023/06/08 05:37:43;;;;;;;12.97;9.97;;;;;;;19.01;100.00;96023.78;6185876;23;20016;-87
2023/06/08 05:40:09;;;;;;;15.30;10.13;;;;;;;19.45;100.00;96025.47;6161778;23;20013;-87
2023/06/08 05:42:35;;;;;;;10.83;9.73;;;;;;;20.04;100.00;96020.56;6187420;23;20001;-87
2023/06/08 05:45:00;;;;;;;12.37;9.93;;;;;;;20.11;100.00;96017.81;6165516;23;20004;-87
2023/06/08 05:47:26;;;;;;;12.83;9.77;;;;;;;20.93;100.00;96026.16;6164069;23;20015;-84
2023/06/08 05:49:52;;;;;;;11.10;9.80;;;;;;;20.70;100.00;96026.91;6163556;23;20019;-84
2023/06/08 05:52:17;;;;;;;11.05;9.15;;;;;;;21.19;100.00;96016.88;6188127;23;20005;-84
2023/06/08 05:54:43;;;;;;;10.20;8.88;;;;;;;21.79;100.00;96024.69;6161956;23;20460;-84
2023/06/08 05:57:08;;;;;;;10.23;8.40;;;;;;;22.23;100.00;96024.28;6184100;23;20337;-84
2023/06/08 05:59:34;;;;;;;10.00;8.68;;;;;;;22.26;100.00;96027.28;6183242;23;20491;-83
2023/06/08 06:02:00;;;;;;;14.35;9.60;;;;;;;22.20;100.00;96030.09;6183868;23;20050;-84
2023/06/08 06:04:25;;;;;;;10.23;8.63;;;;;;;22.39;100.00;96023.53;6184265;23;20012;-84
2023/06/08 06:06:51;;;;;;;10.55;8.82;;;;;;;22.86;100.00;96019.81;6183607;23;20008;-84
2023/06/08 06:09:16;;;;;;;10.82;8.68;;;;;;;23.04;100.00;96019.63;6208357;23;20493;-84
2023/06/08 06:11:42;;;;;;;13.48;9.02;;;;;;;22.87;100.00;96016.06;6210038;23;20004;-84
2023/06/08 06:14:07;;;;;;;10.65;8.50;;;;;;;22.88;100.00;96015.03;6183438;23;20012;-84
2023/06/08 06:16:33;;;;;;;9.23;8.10;;;;;;;23.77;100.00;96007.06;6160644;23;20020;-84
2023/06/08 06:18:58;;;;;;;9.07;8.10;;;;;;;23.40;100.00;96012.13;6161066;23;20004;-84
2023/06/08 06:21:24;;;;;;;11.77;8.40;;;;;;;23.93;100.00;96013.44;6210970;23;20440;-84
2023/06/08 06:23:50;;;;;;;9.60;8.27;;;;;;;24.11;100.00;96012.31;6161111;23;20016;-84
2023/06/08 06:26:15;;;;;;;9.35;7.57;;;;;;;24.30;100.00;96008.25;6190084;23;20381;-84
2023/06/08 06:28:41;;;;;;;9.55;7.55;;;;;;;25.12;100.00;96006.44;6189999;23;20004;-84
2023/06/08 06:31:06;;;;;;;10.77;7.60;;;;;;;25.17;100.00;96003.78;6216480;23;19993;-84
2023/06/08 06:33:32;;;;;;;10.77;7.90;;;;;;;25.87;100.00;96001.84;6165202;23;20004;-84
2023/06/08 06:35:58;;;;;;;9.13;7.45;;;;;;;26.37;100.00;96008.50;6190579;23;20341;-84
2023/06/08 06:38:24;;;;;;;9.88;8.38;;;;;;;26.23;100.00;96010.09;6221585;23;20385;-85
2023/06/08 06:40:52;;;;;;;9.60;7.78;;;;;;;26.60;100.00;96009.16;6216414;23;20348;-85
2023/06/08 06:43:21;;;;;;;10.38;7.60;;;;;;;26.26;100.00;96018.47;6186870;23;20103;-85
2023/06/08 06:45:52;;;;;;;10.02;8.02;;;;;;;26.75;100.00;96017.25;6161368;23;20023;-84
2023/06/08 06:48:19;;;;;;;10.65;7.65;;;;;;;26.71;100.00;96016.19;6209644;23;20004;-84
2023/06/08 06:50:45;;;;;;;10.48;7.88;;;;;;;26.85;100.00;96011.88;6185181;23;20005;-83
2023/06/08 06:53:11;;;;;;;9.75;7.55;;;;;;;27.66;100.00;96007.56;6161148;23;20143;-84
2023/06/08 06:55:37;;;;;;;10.43;7.70;;;;;;;27.43;100.00;96003.53;6160580;23;20004;-85
2023/06/08 06:58:03;;;;;;;9.68;7.75;;;;;;;28.33;99.04;96005.47;6159107;23;20070;-84
2023/06/08 07:00:32;;;;;;;8.43;7.07;;;;;;;28.47;96.92;96011.94;6158889;23;20012;-84
2023/06/08 07:02:58;;;;;;;10.02;8.13;;;;;;;27.80;100.00;96010.53;6160668;23;20005;-84
2023/06/08 07:05:23;;;;;;;9.07;8.10;;;;;;;28.87;93.94;96002.78;6185846;23;20839;-84
2023/06/08 07:07:52;;;;;;;9.80;7.70;;;;;;;29.10;92.09;96011.28;6159750;23;20039;-84
2023/06/08 07:10:20;;;;;;;9.38;7.97;;;;;;;28.94;96.40;96009.75;6184752;23;20108;-84
2023/06/08 07:12:45;;;;;;;13.60;8.05;;;;;;;29.30;91.01;96000.28;6211297;23;20139;-84
2023/06/08 07:15:11;;;;;;;9.57;7.97;;;;;;;30.35;83.77;96008.75;6211578;23;20013;-85
2023/06/08 07:17:36;;;;;;;10.32;7.72;;;;;;;30.59;79.56;96002.47;6212293;23;20011;-85
2023/06/08 07:20:03;;;;;;;9.80;6.88;;;;;;;30.26;81.54;96000.44;6184192;23;20031;-86
2023/06/08 07:22:28;;;;;;;8.80;7.20;;;;;;;29.80;86.84;96006.34;6160361;23;20004;-88
2023/06/08 07:24:54;;;;;;;8.52;7.03;;;;;;;30.59;82.33;96003.25;6162478;23;20445;-88
2023/06/08 07:27:19;;;;;;;8.60;7.43;;;;;;;30.65;78.79;95999.38;6160742;23;20005;-89
2023/06/08 07:29:45;;;;;;;7.85;6.28;;;;;;;31.16;77.97;95998.63;6187289;23;20000;-87
2023/06/08 07:32:11;;;;;;;10.30;8.85;;;;;;;30.37;84.02;96003.00;6210331;23;20004;-87
2023/06/08 07:34:42;;;;;;;10.18;7.18;;;;;;;32.39;72.54;95999.13;6212560;23;20001;-88
2023/06/08 07:37:08;;;;;;;8.90;7.07;;;;;;;31.59;75.72;96000.38;6187354;23;20460;-87
2023/06/08 07:39:34;;;;;;;8.55;7.68;;;;;;;31.40;77.50;96006.69;6161435;23;20126;-88
2023/06/08 07:42:00;;;;;;;8.52;7.40;;;;;;;30.85;83.05;96001.03;6186642;23;20004;-87
2023/06/08 07:44:25;;;;;;;8.18;7.10;;;;;;;32.42;72.46;96001.28;6170218;23;20020;-88
2023/06/08 07:46:51;;;;;;;9.45;6.70;;;;;;;32.23;73.53;95998.66;6166423;23;20015;-88
2023/06/08 07:49:16;;;;;;;9.63;7.60;;;;;;;30.56;79.17;96009.28;6166126;23;20012;-88
2023/06/08 07:51:43;;;;;;;8.00;7.20;;;;;;;30.57;83.11;96002.75;6190992;23;20015;-88
2023/06/08 07:54:09;;;;;;;7.85;6.82;;;;;;;32.49;71.36;96001.66;6165664;23;20027;-88
2023/06/08 07:56:34;;;;;;;10.50;7.35;;;;;;;31.67;73.24;95997.78;6165483;23;20467;-88
2023/06/08 07:59:00;;;;;;;8.30;6.72;;;;;;;31.54;73.95;96004.00;6211900;23;20001;-88
2023/06/08 08:01:25;;;;;;;7.93;6.10;;;;;;;33.25;61.63;95998.31;6183314;23;20003;-88
2023/06/08 08:03:51;;;;;;;6.82;5.78;;;;;;;32.94;61.98;95998.22;6210073;23;20006;-87
2023/06/08 08:06:17;;;;;;;7.53;6.72;;;;;;;33.88;58.22;96005.44;6185530;23;20056;-87
2023/06/08 08:08:43;;;;;;;8.90;6.93;;;;;;;32.98;62.89;95997.31;6163582;23;20011;-87
2023/06/08 08:11:09;;;;;;;9.60;6.60;;;;;;;33.58;60.22;95995.38;6186544;23;20004;-88
2023/06/08 08:13:34;;;;;;;10.40;6.40;;;;;;;34.03;58.03;95996.88;6185084;23;20016;-88
2023/06/08 08:16:00;;;;;;;8.18;6.13;;;;;;;35.54;48.19;95993.66;6183520;23;20452;-88
2023/06/08 08:18:26;;;;;;;8.50;7.03;;;;;;;34.63;49.46;95992.72;6184177;23;20090;-87
2023/06/08 08:20:51;;;;;;;8.05;5.97;;;;;;;34.19;55.06;95994.50;6183320;23;20444;-88
2023/06/08 08:23:19;;;;;;;7.60;6.25;;;;;;;34.07;54.69;96001.69;6182778;23;20001;-87
2023/06/08 08:25:45;;;;;;;8.18;6.75;;;;;;;33.13;57.51;95995.34;6182298;23;20115;-88
2023/06/08 08:28:10;;;;;;;7.82;6.22;;;;;;;32.23;60.72;95995.09;6156988;23;20008;-88
2023/06/08 08:30:36;;;;;;;8.13;5.97;;;;;;;33.86;53.41;95995.97;6209902;23;20024;-86
2023/06/08 08:33:01;;;;;;;6.88;5.63;;;;;;;34.94;49.23;95997.22;6180684;23;20009;-88
2023/06/08 08:35:30;;;;;;;6.35;5.28;;;;;;;36.05;46.12;95988.38;6180277;23;20012;-88
2023/06/08 08:37:56;;;;;;;6.80;5.80;;;;;;;36.59;40.63;95991.34;6157082;23;20019;-89
2023/06/08 08:40:22;;;;;;;7.22;5.90;;;;;;;35.67;37.54;95993.81;6156213;23;20003;-88
2023/06/08 08:43:11;;;;;;;7.32;5.32;;;;;;;36.50;38.64;95991.38;6180665;23;20001;-88
2023/06/08 08:45:39;;;;;;;6.10;4.97;;;;;;;35.45;37.00;95994.78;6183688;23;20004;-89
2023/06/08 08:48:07;;;;;;;6.70;5.72;;;;;;;36.02;34.38;95992.59;6185113;23;20015;-88
2023/06/08 08:50:38;;;;;;;6.28;5.03;;;;;;;37.20;34.19;95991.69;6187842;23;20028;-89
2023/06/08 08:53:06;;;;;;;7.15;4.70;;;;;;;36.97;28.23;95991.25;6185324;23;20070;-88
2023/06/08 08:55:33;;;;;;;6.22;4.60;;;;;;;36.21;26.99;95994.91;6231804;23;20005;-87
2023/06/08 08:58:01;;;;;;;6.13;4.22;;;;;;;36.18;25.62;95990.09;6188862;23;20028;-88
2023/06/08 09:00:27;;;;;;;5.90;4.30;;;;;;;36.90;30.27;95988.22;6167882;23;19988;-87
2023/06/08 09:02:53;;;;;;;5.15;4.32;;;;;;;36.45;32.32;95994.28;6188803;23;20016;-88
2023/06/08 09:05:19;;;;;;;5.60;4.50;;;;;;;36.46;31.37;95984.94;6188497;23;19999;-90
2023/06/08 09:07:45;;;;;;;6.97;5.00;;;;;;;36.14;30.33;95980.94;6212052;23;19988;-89
2023/06/08 09:10:19;;;;;;;5.53;4.43;;;;;;;36.30;31.22;95981.97;6191371;23;20341;-88
2023/06/08 09:12:47;;;;;;;8.68;4.72;;;;;;;35.24;33.19;95984.53;6158250;23;20024;-89
2023/06/08 09:15:34;;;;;;;6.05;4.88;;;;;;;35.07;32.25;95990.03;6200802;23;20107;-89
2023/06/08 09:18:14;;;;;;;5.75;4.32;;;;;;;35.82;30.66;95974.94;6174589;23;20019;-88
2023/06/08 09:20:40;;;;;;;6.47;4.57;;;;;;;35.10;32.51;95972.97;6150959;23;20257;-87
2023/06/08 09:23:21;;;;;;;6.70;4.80;;;;;;;33.59;33.82;95975.16;6174663;23;20008;-88
2023/06/08 09:25:47;;;;;;;6.28;4.47;;;;;;;33.26;33.12;95978.13;6177904;23;20131;-89
2023/06/08 09:28:18;;;;;;;9.60;4.10;;;;;;;33.85;33.72;95978.81;6185375;23;20091;-89
2023/06/08 09:30:45;;;;;;;5.72;4.18;;;;;;;33.00;36.45;95978.78;6185478;23;20008;-88
2023/06/08 09:33:19;;;;;;;6.20;4.22;;;;;;;33.57;35.71;95975.47;6186220;23;20009;-89
2023/06/08 09:35:45;;;;;;;6.68;4.68;;;;;;;33.29;35.44;95970.13;6161111;23;20011;-89
2023/06/08 09:38:21;;;;;;;6.50;4.43;;;;;;;32.64;39.66;95973.31;6159770;23;20001;-87
2023/06/08 09:40:49;;;;;;;5.95;4.25;;;;;;;33.15;37.18;95976.78;6183865;23;20005;-88
2023/06/08 09:43:33;;;;;;;5.97;4.25;;;;;;;33.01;37.47;95968.66;6186799;23;20003;-87
2023/06/08 09:45:58;;;;;;;8.82;4.40;;;;;;;33.13;37.53;95970.81;6215692;23;20024;-87
2023/06/08 09:48:24;;;;;;;5.93;4.55;;;;;;;32.65;37.38;95968.66;6189215;23;20001;-88
2023/06/08 09:51:01;;;;;;;7.57;4.20;;;;;;;34.79;34.41;95960.28;6165854;23;20004;-87
2023/06/08 09:53:44;;;;;;;6.07;4.30;;;;;;;34.96;31.92;95959.47;6191934;23;20034;-88
2023/06/08 09:56:10;;;;;;;7.82;4.38;;;;;;;35.46;29.63;95960.88;6191585;23;20020;-87
2023/06/08 09:58:38;;;;;;;6.88;4.43;;;;;;;35.53;29.81;95963.94;6191480;23;20904;-88
2023/06/08 10:01:09;;;;;;;6.07;4.40;;;;;;;34.67;28.82;95960.91;6190752;23;20023;-88
2023/06/08 10:03:39;;;;;;;8.43;4.10;;;;;;;36.48;28.51;95947.06;6190957;23;20375;-88
2023/06/08 10:06:06;;;;;;;12.65;4.72;;;;;;;36.03;27.63;95955.06;6166050;23;20013;-88
2023/06/08 10:08:37;;;;;;;5.80;3.80;;;;;;;37.06;27.26;95941.84;6191168;23;20083;-88
2023/06/08 10:11:03;;;;;;;6.15;4.68;;;;;;;36.71;27.14;95952.25;6217219;23;20011;-88
2023/06/08 10:13:30;;;;;;;6.38;4.82;;;;;;;35.59;27.67;95952.47;6188503;23;20007;-87
2023/06/08 10:16:10;;;;;;;5.32;4.00;;;;;;;35.17;28.35;95951.41;6187348;23;20105;-87
2023/06/08 10:18:37;;;;;;;6.85;4.40;;;;;;;34.13;28.14;95948.59;6187961;23;20008;-87
2023/06/08 10:21:05;;;;;;;6.55;4.20;;;;;;;35.45;29.02;95945.56;6186740;23;20125;-88
2023/06/08 10:23:32;;;;;;;6.25;4.30;;;;;;;33.50;30.16;95950.56;6212359;23;20126;-88
2023/06/08 10:26:00;;;;;;;5.38;3.97;;;;;;;34.56;29.18;95958.81;6161395;23;20016;-88
2023/06/08 10:28:25;;;;;;;7.03;4.10;;;;;;;36.08;26.33;95935.72;6161179;23;20471;-88
2023/06/08 10:30:51;;;;;;;5.53;3.53;;;;;;;36.49;26.60;95935.00;6161319;23;20009;-88
2023/06/08 10:33:24;;;;;;;5.93;4.05;;;;;;;36.40;26.91;95936.19;6162096;23;20059;-89
2023/06/08 10:36:10;;;;;;;8.25;4.45;;;;;;;36.69;25.19;95936.16;6188000;23;20001;-89
2023/06/08 10:38:54;;;;;;;6.03;4.20;;;;;;;36.87;25.62;95923.09;6162423;23;20087;-87
2023/06/08 10:41:38;;;;;;;5.30;3.88;;;;;;;37.74;24.85;95923.03;6163439;23;20032;-89
2023/06/08 10:44:04;;;;;;;5.35;4.07;;;;;;;36.52;26.19;95917.91;6188826;23;20012;-89
2023/06/08 10:46:42;;;;;;;5.57;4.38;;;;;;;36.13;26.05;95910.09;6162725;23;20498;-89
2023/06/08 10:49:10;;;;;;;7.65;4.57;;;;;;;35.43;26.52;95905.69;6162986;23;20001;-89
2023/06/08 10:51:46;;;;;;;6.20;4.53;;;;;;;35.76;26.22;95909.78;6164857;23;20028;-89
2023/06/08 10:54:24;;;;;;;6.72;4.63;;;;;;;36.03;25.13;95911.28;6162694;23;20008;-89
2023/06/08 10:56:54;;;;;;;5.80;4.30;;;;;;;36.28;25.78;95906.75;6225373;23;20456;-90
2023/06/08 10:59:37;;;;;;;7.18;4.97;;;;;;;34.74;27.06;95913.97;6167385;23;20127;-88
2023/06/08 11:02:06;;;;;;;6.43;4.50;;;;;;;32.68;29.56;95916.31;6160635;23;20000;-88
2023/06/08 11:04:34;;;;;;;7.30;5.90;;;;;;;35.06;27.94;95911.91;6185572;23;20004;-89
2023/06/08 11:07:03;;;;;;;7.95;6.78;;;;;;;37.08;25.76;95901.16;6161270;23;20074;-89
2023/06/08 11:09:30;;;;;;;9.52;4.80;;;;;;;35.54;26.56;95908.88;6160399;23;20070;-88
2023/06/08 11:11:56;;;;;;;7.22;4.60;;;;;;;34.43;28.62;95914.91;6185129;23;20005;-89
2023/06/08 11:14:21;;;;;;;6.38;4.40;;;;;;;34.62;27.98;95900.19;6184962;23;20013;-88
2023/06/08 11:16:55;;;;;;;7.72;4.72;;;;;;;34.50;27.85;95904.31;6184998;23;20012;-88
2023/06/08 11:19:21;;;;;;;6.18;4.82;;;;;;;36.43;26.22;95897.97;6185010;23;20388;-88
2023/06/08 11:21:50;;;;;;;5.60;4.28;;;;;;;36.97;24.98;95894.50;6211735;23;20444;-89
2023/06/08 11:24:17;;;;;;;6.78;4.45;;;;;;;37.25;25.30;95886.47;6187016;23;20004;-89
2023/06/08 11:26:43;;;;;;;6.10;4.38;;;;;;;37.28;25.49;95883.03;6163710;23;20091;-88
2023/06/08 11:29:11;;;;;;;9.40;5.35;;;;;;;37.33;25.00;95877.34;6162741;23;20499;-89